createdAt,value
2018-02-01T00:00:40.688Z,0
2018-02-01T00:01:43.115Z,0
2018-02-01T00:02:45.845Z,0
2018-02-01T00:03:48.276Z,0
2018-02-01T00:04:50.697Z,0
2018-02-01T00:05:53.117Z,0
2018-02-01T00:06:55.821Z,0
2018-02-01T00:07:58.242Z,0
2018-02-01T00:09:00.674Z,0
2018-02-01T00:10:03.378Z,0
2018-02-01T00:11:05.789Z,0
2018-02-01T00:12:08.492Z,0
2018-02-01T00:13:10.927Z,0
2018-02-01T00:14:13.345Z,0
2018-02-01T00:15:15.781Z,0
2018-02-01T00:16:18.198Z,0
2018-02-01T00:17:20.627Z,0
2018-02-01T00:18:23.344Z,0
2018-02-01T00:19:25.771Z,0
2018-02-01T00:20:28.485Z,0
2018-02-01T00:21:30.910Z,0
2018-02-01T00:22:33.330Z,0
2018-02-01T00:23:35.755Z,0
2018-02-01T00:24:38.177Z,0
2018-02-01T00:25:40.612Z,0
2018-02-01T00:26:43.033Z,0
2018-02-01T00:27:45.468Z,0
2018-02-01T00:28:47.894Z,0
2018-02-01T00:29:50.323Z,0
2018-02-01T00:30:52.751Z,0
2018-02-01T00:31:55.163Z,0
2018-02-01T00:32:57.587Z,0
2018-02-01T00:34:00.012Z,0
2018-02-01T00:35:02.431Z,0
2018-02-01T00:36:05.136Z,0
2018-02-01T00:37:07.555Z,0
2018-02-01T00:38:09.982Z,0
2018-02-01T00:39:12.734Z,0
2018-02-01T00:40:15.151Z,0
2018-02-01T00:41:17.571Z,0
2018-02-01T00:42:20.000Z,0
2018-02-01T00:43:22.424Z,0
2018-02-01T00:44:24.866Z,0
2018-02-01T00:45:27.287Z,0
2018-02-01T00:46:29.705Z,0
2018-02-01T00:47:32.135Z,0
2018-02-01T00:48:34.554Z,0
2018-02-01T00:49:36.981Z,0
2018-02-01T00:50:39.410Z,0
2018-02-01T00:51:41.827Z,0
2018-02-01T00:52:44.254Z,0
2018-02-01T00:53:46.690Z,0
2018-02-01T00:54:49.385Z,0
2018-02-01T00:55:51.827Z,0
2018-02-01T00:56:54.242Z,0
2018-02-01T00:57:56.668Z,0
2018-02-01T00:58:59.087Z,0
2018-02-01T01:00:01.517Z,0
2018-02-01T01:01:03.944Z,0
2018-02-01T01:02:06.374Z,0
2018-02-01T01:03:08.793Z,0
2018-02-01T01:04:11.500Z,0
2018-02-01T01:05:13.936Z,0
2018-02-01T01:06:16.361Z,0
2018-02-01T01:07:18.784Z,0
2018-02-01T01:08:21.210Z,0
2018-02-01T01:09:23.632Z,0
2018-02-01T01:10:26.376Z,0
2018-02-01T01:11:29.084Z,0
2018-02-01T01:12:31.507Z,0
2018-02-01T01:13:33.929Z,0
2018-02-01T01:14:36.361Z,0
2018-02-01T01:15:38.789Z,0
2018-02-01T01:16:41.227Z,0
2018-02-01T01:17:43.635Z,0
2018-02-01T01:18:46.068Z,0
2018-02-01T01:19:48.508Z,0
2018-02-01T01:20:50.930Z,0
2018-02-01T01:21:53.356Z,0
2018-02-01T01:22:55.776Z,0
2018-02-01T01:23:58.198Z,0
2018-02-01T01:25:00.926Z,0
2018-02-01T01:26:03.348Z,0
2018-02-01T01:27:05.779Z,0
2018-02-01T01:28:08.202Z,0
2018-02-01T01:29:10.610Z,0
2018-02-01T01:30:13.033Z,0
2018-02-01T01:31:15.457Z,0
2018-02-01T01:32:17.886Z,0
2018-02-01T01:33:20.308Z,0
2018-02-01T01:34:22.730Z,0
2018-02-01T01:35:25.154Z,0
2018-02-01T01:36:27.586Z,0
2018-02-01T01:37:30.022Z,0
2018-02-01T01:38:32.733Z,0
2018-02-01T01:39:35.160Z,0
2018-02-01T01:40:37.574Z,0
2018-02-01T01:41:40.010Z,0
2018-02-01T01:42:42.436Z,0
2018-02-01T01:43:44.850Z,0
2018-02-01T01:44:47.571Z,0
2018-02-01T01:45:49.992Z,0
2018-02-01T01:46:52.420Z,0
2018-02-01T01:47:54.839Z,0
2018-02-01T01:48:57.263Z,0
2018-02-01T01:49:59.680Z,0
2018-02-01T01:51:02.150Z,0
2018-02-01T01:52:04.846Z,0
2018-02-01T01:53:07.263Z,0
2018-02-01T01:54:09.983Z,0
2018-02-01T01:55:12.401Z,0
2018-02-01T01:56:14.830Z,0
2018-02-01T01:57:17.534Z,0
2018-02-01T01:58:19.958Z,0
2018-02-01T01:59:22.387Z,0
2018-02-01T02:00:24.805Z,0
2018-02-01T02:01:27.236Z,0
2018-02-01T02:02:29.665Z,0
2018-02-01T02:03:32.092Z,0
2018-02-01T02:04:34.521Z,0
2018-02-01T02:05:36.942Z,0
2018-02-01T02:06:39.368Z,0
2018-02-01T02:07:41.794Z,0
2018-02-01T02:08:44.212Z,0
2018-02-01T02:09:46.629Z,0
2018-02-01T02:10:49.061Z,0
2018-02-01T02:11:51.488Z,0
2018-02-01T02:12:54.195Z,0
2018-02-01T02:13:56.629Z,0
2018-02-01T02:14:59.041Z,0
2018-02-01T02:16:01.472Z,0
2018-02-01T02:17:03.897Z,0
2018-02-01T02:18:06.321Z,0
2018-02-01T02:19:08.744Z,0
2018-02-01T02:20:11.167Z,0
2018-02-01T02:21:13.591Z,0
2018-02-01T02:22:16.019Z,0
2018-02-01T02:23:18.438Z,0
2018-02-01T02:24:20.850Z,0
2018-02-01T02:25:23.273Z,0
2018-02-01T02:26:25.988Z,0
2018-02-01T02:27:28.414Z,0
2018-02-01T02:28:30.826Z,0
2018-02-01T02:29:33.258Z,0
2018-02-01T02:30:35.977Z,0
2018-02-01T02:31:38.419Z,0
2018-02-01T02:32:40.838Z,0
2018-02-01T02:33:43.548Z,0
2018-02-01T02:34:45.965Z,0
2018-02-01T02:35:48.399Z,0
2018-02-01T02:36:51.115Z,0
2018-02-01T02:37:53.534Z,0
2018-02-01T02:38:56.239Z,0
2018-02-01T02:39:58.668Z,0
2018-02-01T02:41:01.367Z,0
2018-02-01T02:42:03.797Z,0
2018-02-01T02:43:06.211Z,0
2018-02-01T02:44:08.638Z,0
2018-02-01T02:45:11.638Z,0
2018-02-01T02:46:14.057Z,0
2018-02-01T02:47:16.481Z,0
2018-02-01T02:48:18.911Z,0
2018-02-01T02:49:21.616Z,0
2018-02-01T02:50:24.365Z,0
2018-02-01T02:51:26.786Z,0
2018-02-01T02:52:29.784Z,0
2018-02-01T02:53:32.497Z,0
2018-02-01T02:54:35.200Z,0
2018-02-01T02:55:37.625Z,0
2018-02-01T02:56:40.042Z,0
2018-02-01T02:57:42.486Z,0
2018-02-01T02:58:44.905Z,0
2018-02-01T02:59:47.317Z,0
2018-02-01T03:00:49.747Z,0
2018-02-01T03:01:52.164Z,0
2018-02-01T03:02:54.873Z,0
2018-02-01T03:03:57.306Z,0
2018-02-01T03:04:59.717Z,0
2018-02-01T03:06:02.142Z,0
2018-02-01T03:07:04.866Z,0
2018-02-01T03:08:07.283Z,0
2018-02-01T03:09:09.707Z,0
2018-02-01T03:10:12.123Z,0
2018-02-01T03:11:14.543Z,0
2018-02-01T03:12:16.975Z,0
2018-02-01T03:13:19.399Z,0
2018-02-01T03:14:21.825Z,0
2018-02-01T03:15:24.254Z,0
2018-02-01T03:16:26.674Z,0
2018-02-01T03:17:29.101Z,0
2018-02-01T03:18:31.537Z,0
2018-02-01T03:19:33.953Z,0
2018-02-01T03:20:36.379Z,0
2018-02-01T03:21:39.367Z,0
2018-02-01T03:22:41.803Z,0
2018-02-01T03:23:44.525Z,0
2018-02-01T03:24:47.233Z,0
2018-02-01T03:25:49.967Z,0
2018-02-01T03:26:52.390Z,0
2018-02-01T03:27:54.813Z,0
2018-02-01T03:28:57.243Z,0
2018-02-01T03:29:59.662Z,0
2018-02-01T03:31:02.098Z,0
2018-02-01T03:32:04.808Z,0
2018-02-01T03:33:07.235Z,0
2018-02-01T03:34:09.657Z,0
2018-02-01T03:35:12.079Z,0
2018-02-01T03:36:14.841Z,0
2018-02-01T03:37:17.265Z,0
2018-02-01T03:38:19.690Z,0
2018-02-01T03:39:22.398Z,0
2018-02-01T03:40:24.820Z,0
2018-02-01T03:41:27.251Z,0
2018-02-01T03:42:29.661Z,0
2018-02-01T03:43:32.094Z,0
2018-02-01T03:44:34.525Z,0
2018-02-01T03:45:36.942Z,0
2018-02-01T03:46:39.653Z,0
2018-02-01T03:47:42.074Z,0
2018-02-01T03:48:44.489Z,0
2018-02-01T03:49:46.928Z,0
2018-02-01T03:50:49.625Z,0
2018-02-01T03:51:52.039Z,0
2018-02-01T03:52:54.463Z,0
2018-02-01T03:53:56.893Z,0
2018-02-01T03:54:59.311Z,0
2018-02-01T03:56:02.027Z,0
2018-02-01T03:57:04.447Z,0
2018-02-01T03:58:07.157Z,0
2018-02-01T03:59:09.577Z,0
2018-02-01T04:00:12.003Z,0
2018-02-01T04:01:14.421Z,0
2018-02-01T04:02:16.841Z,0
2018-02-01T04:03:19.266Z,0
2018-02-01T04:04:21.692Z,0
2018-02-01T04:05:24.111Z,0
2018-02-01T04:06:26.837Z,0
2018-02-01T04:07:29.256Z,0
2018-02-01T04:08:31.970Z,0
2018-02-01T04:09:34.394Z,0
2018-02-01T04:10:36.813Z,0
2018-02-01T04:11:39.243Z,0
2018-02-01T04:12:41.674Z,0
2018-02-01T04:13:44.086Z,0
2018-02-01T04:14:46.513Z,0
2018-02-01T04:15:48.925Z,0
2018-02-01T04:16:51.633Z,0
2018-02-01T04:17:54.055Z,0
2018-02-01T04:18:56.484Z,0
2018-02-01T04:19:58.902Z,0
2018-02-01T04:21:01.325Z,0
2018-02-01T04:22:03.759Z,0
2018-02-01T04:23:06.174Z,0
2018-02-01T04:24:08.890Z,0
2018-02-01T04:25:11.591Z,0
2018-02-01T04:26:14.021Z,0
2018-02-01T04:27:16.449Z,0
2018-02-01T04:28:18.863Z,0
2018-02-01T04:29:21.285Z,0
2018-02-01T04:30:24.003Z,0
2018-02-01T04:31:26.417Z,0
2018-02-01T04:32:29.120Z,0
2018-02-01T04:33:31.541Z,0
2018-02-01T04:34:33.992Z,0
2018-02-01T04:35:36.410Z,0
2018-02-01T04:36:38.840Z,0
2018-02-01T04:37:41.543Z,0
2018-02-01T04:38:43.962Z,0
2018-02-01T04:39:46.394Z,0
2018-02-01T04:40:49.122Z,0
2018-02-01T04:41:51.528Z,0
2018-02-01T04:42:53.951Z,0
2018-02-01T04:43:56.373Z,0
2018-02-01T04:44:58.791Z,0
2018-02-01T04:46:01.219Z,0
2018-02-01T04:47:03.637Z,0
2018-02-01T04:48:06.064Z,0
2018-02-01T04:49:08.506Z,0
2018-02-01T04:50:10.921Z,0
2018-02-01T04:51:13.349Z,0
2018-02-01T04:52:15.771Z,0
2018-02-01T04:53:18.201Z,0
2018-02-01T04:54:20.621Z,0
2018-02-01T04:55:23.101Z,0
2018-02-01T04:56:25.516Z,0
2018-02-01T04:57:27.935Z,0
2018-02-01T04:58:30.368Z,0
2018-02-01T04:59:32.783Z,0
2018-02-01T05:00:35.215Z,0
2018-02-01T05:01:37.639Z,0
2018-02-01T05:02:40.054Z,0
2018-02-01T05:03:42.491Z,0
2018-02-01T05:04:44.912Z,0
2018-02-01T05:05:47.331Z,0
2018-02-01T05:06:50.041Z,0
2018-02-01T05:07:52.465Z,0
2018-02-01T05:08:54.895Z,0
2018-02-01T05:09:57.324Z,0
2018-02-01T05:11:00.030Z,0
2018-02-01T05:12:02.729Z,0
2018-02-01T05:13:05.464Z,0
2018-02-01T05:14:07.869Z,0
2018-02-01T05:15:10.296Z,0
2018-02-01T05:16:12.717Z,0
2018-02-01T05:17:15.143Z,0
2018-02-01T05:18:17.569Z,0
2018-02-01T05:19:20.000Z,0
2018-02-01T05:20:22.415Z,0
2018-02-01T05:21:24.844Z,0
2018-02-01T05:22:27.263Z,0
2018-02-01T05:23:29.690Z,0
2018-02-01T05:24:32.101Z,0
2018-02-01T05:25:34.526Z,0
2018-02-01T05:26:36.949Z,0
2018-02-01T05:27:39.365Z,0
2018-02-01T05:28:41.797Z,0
2018-02-01T05:29:44.502Z,0
2018-02-01T05:30:46.931Z,0
2018-02-01T05:31:49.358Z,0
2018-02-01T05:32:52.064Z,0
2018-02-01T05:33:54.483Z,0
2018-02-01T05:34:56.914Z,0
2018-02-01T05:35:59.327Z,0
2018-02-01T05:37:01.748Z,0
2018-02-01T05:38:04.331Z,0
2018-02-01T05:39:06.741Z,0
2018-02-01T05:40:09.168Z,0
2018-02-01T05:41:11.591Z,0
2018-02-01T05:42:14.023Z,0
2018-02-01T05:43:16.728Z,0
2018-02-01T05:44:19.719Z,0
2018-02-01T05:45:22.142Z,0
2018-02-01T05:46:24.565Z,0
2018-02-01T05:47:26.987Z,0
2018-02-01T05:48:29.395Z,0
2018-02-01T05:49:32.105Z,0
2018-02-01T05:50:34.532Z,0
2018-02-01T05:51:36.942Z,0
2018-02-01T05:52:39.364Z,0
2018-02-01T05:53:41.798Z,0
2018-02-01T05:54:44.213Z,0
2018-02-01T05:55:46.633Z,0
2018-02-01T05:56:49.057Z,0
2018-02-01T05:57:51.487Z,0
2018-02-01T05:58:53.909Z,0
2018-02-01T05:59:56.345Z,0
2018-02-01T06:00:59.033Z,0
2018-02-01T06:02:01.749Z,0
2018-02-01T06:03:04.185Z,0
2018-02-01T06:04:06.959Z,0
2018-02-01T06:05:09.387Z,0
2018-02-01T06:06:12.373Z,0
2018-02-01T06:07:14.799Z,0
2018-02-01T06:08:17.216Z,0
2018-02-01T06:09:19.645Z,0
2018-02-01T06:10:22.072Z,0
2018-02-01T06:11:24.498Z,0
2018-02-01T06:12:26.929Z,0
2018-02-01T06:13:29.354Z,0
2018-02-01T06:14:32.066Z,0
2018-02-01T06:15:34.482Z,0
2018-02-01T06:16:37.192Z,0
2018-02-01T06:17:39.607Z,0
2018-02-01T06:18:42.306Z,0
2018-02-01T06:19:44.733Z,0
2018-02-01T06:20:47.150Z,0
2018-02-01T06:21:49.578Z,0
2018-02-01T06:22:52.003Z,0
2018-02-01T06:23:54.422Z,0
2018-02-01T06:24:56.849Z,0
2018-02-01T06:25:59.555Z,0
2018-02-01T06:27:01.964Z,0
2018-02-01T06:28:04.693Z,0
2018-02-01T06:29:07.406Z,0
2018-02-01T06:30:10.109Z,0
2018-02-01T06:31:12.536Z,0
2018-02-01T06:32:14.962Z,0
2018-02-01T06:33:17.380Z,0
2018-02-01T06:34:19.817Z,0
2018-02-01T06:35:22.225Z,0
2018-02-01T06:36:24.664Z,0
2018-02-01T06:37:27.080Z,0
2018-02-01T06:38:29.492Z,0
2018-02-01T06:39:31.933Z,0
2018-02-01T06:40:34.343Z,0
2018-02-01T06:41:36.774Z,0
2018-02-01T06:42:39.483Z,0
2018-02-01T06:43:41.893Z,0
2018-02-01T06:44:44.607Z,0
2018-02-01T06:45:47.356Z,0
2018-02-01T06:46:49.772Z,0
2018-02-01T06:47:52.471Z,0
2018-02-01T06:48:54.899Z,0
2018-02-01T06:49:57.322Z,0
2018-02-01T06:50:59.743Z,1
2018-02-01T06:52:02.171Z,1
2018-02-01T06:53:04.589Z,1
2018-02-01T06:54:07.013Z,1
2018-02-01T06:55:09.735Z,1
2018-02-01T06:56:12.161Z,1
2018-02-01T06:57:14.584Z,1
2018-02-01T06:58:17.013Z,2
2018-02-01T06:59:19.437Z,2
2018-02-01T07:00:21.865Z,2
2018-02-01T07:01:24.573Z,2
2018-02-01T07:02:26.978Z,2
2018-02-01T07:03:29.403Z,3
2018-02-01T07:04:31.826Z,3
2018-02-01T07:05:34.242Z,3
2018-02-01T07:06:36.679Z,3
2018-02-01T07:07:39.085Z,4
2018-02-01T07:08:41.504Z,4
2018-02-01T07:09:43.937Z,4
2018-02-01T07:10:46.352Z,5
2018-02-01T07:11:48.786Z,5
2018-02-01T07:12:51.205Z,5
2018-02-01T07:13:53.632Z,6
2018-02-01T07:14:56.062Z,6
2018-02-01T07:15:58.490Z,7
2018-02-01T07:17:00.900Z,7
2018-02-01T07:18:03.329Z,8
2018-02-01T07:19:05.754Z,9
2018-02-01T07:20:08.179Z,9
2018-02-01T07:21:10.601Z,9
2018-02-01T07:22:13.031Z,9
2018-02-01T07:23:15.733Z,9
2018-02-01T07:24:18.157Z,11
2018-02-01T07:25:21.146Z,12
2018-02-01T07:26:23.573Z,13
2018-02-01T07:27:25.985Z,15
2018-02-01T07:28:28.419Z,15
2018-02-01T07:29:30.836Z,15
2018-02-01T07:30:33.262Z,17
2018-02-01T07:31:35.685Z,17
2018-02-01T07:32:38.110Z,19
2018-02-01T07:33:40.528Z,20
2018-02-01T07:34:42.967Z,22
2018-02-01T07:35:45.383Z,23
2018-02-01T07:36:48.089Z,24
2018-02-01T07:37:50.786Z,25
2018-02-01T07:38:53.209Z,25
2018-02-01T07:39:55.635Z,28
2018-02-01T07:40:58.101Z,28
2018-02-01T07:42:00.505Z,29
2018-02-01T07:43:03.220Z,32
2018-02-01T07:44:05.642Z,32
2018-02-01T07:45:08.060Z,30
2018-02-01T07:46:10.484Z,29
2018-02-01T07:47:12.915Z,35
2018-02-01T07:48:15.332Z,36
2018-02-01T07:49:17.751Z,38
2018-02-01T07:50:20.189Z,42
2018-02-01T07:51:22.636Z,44
2018-02-01T07:52:25.401Z,48
2018-02-01T07:53:28.348Z,52
2018-02-01T07:54:30.734Z,55
2018-02-01T07:55:33.156Z,48
2018-02-01T07:56:35.580Z,45
2018-02-01T07:57:38.006Z,53
2018-02-01T07:58:40.432Z,50
2018-02-01T07:59:43.148Z,48
2018-02-01T08:00:46.464Z,47
2018-02-01T08:01:49.170Z,48
2018-02-01T08:02:51.598Z,49
2018-02-01T08:03:54.304Z,49
2018-02-01T08:04:56.734Z,49
2018-02-01T08:05:59.158Z,50
2018-02-01T08:07:01.568Z,50
2018-02-01T08:08:04.000Z,50
2018-02-01T08:09:06.428Z,50
2018-02-01T08:10:08.852Z,41
2018-02-01T08:11:11.275Z,44
2018-02-01T08:12:13.700Z,43
2018-02-01T08:13:16.126Z,38
2018-02-01T08:14:18.557Z,36
2018-02-01T08:15:20.979Z,32
2018-02-01T08:16:23.406Z,22
2018-02-01T08:17:25.828Z,22
2018-02-01T08:18:28.257Z,22
2018-02-01T08:19:30.686Z,24
2018-02-01T08:20:33.129Z,27
2018-02-01T08:21:35.554Z,33
2018-02-01T08:22:38.298Z,37
2018-02-01T08:23:40.716Z,44
2018-02-01T08:24:43.146Z,42
2018-02-01T08:25:45.566Z,30
2018-02-01T08:26:47.985Z,28
2018-02-01T08:27:50.409Z,30
2018-02-01T08:28:52.838Z,24
2018-02-01T08:29:55.266Z,25
2018-02-01T08:30:57.688Z,23
2018-02-01T08:32:00.112Z,23
2018-02-01T08:33:02.531Z,21
2018-02-01T08:34:04.966Z,18
2018-02-01T08:35:07.692Z,18
2018-02-01T08:36:10.110Z,17
2018-02-01T08:37:12.832Z,20
2018-02-01T08:38:15.252Z,22
2018-02-01T08:39:17.682Z,23
2018-02-01T08:40:20.107Z,21
2018-02-01T08:41:22.525Z,22
2018-02-01T08:42:24.947Z,19
2018-02-01T08:43:27.375Z,23
2018-02-01T08:44:30.084Z,26
2018-02-01T08:45:32.505Z,27
2018-02-01T08:46:34.924Z,32
2018-02-01T08:47:37.351Z,32
2018-02-01T08:48:39.779Z,35
2018-02-01T08:49:42.189Z,31
2018-02-01T08:50:44.901Z,24
2018-02-01T08:51:47.321Z,22
2018-02-01T08:52:49.741Z,22
2018-02-01T08:53:52.456Z,26
2018-02-01T08:54:55.204Z,29
2018-02-01T08:55:57.629Z,28
2018-02-01T08:57:00.065Z,27
2018-02-01T08:58:02.481Z,24
2018-02-01T08:59:04.912Z,26
2018-02-01T09:00:07.337Z,27
2018-02-01T09:01:09.770Z,27
2018-02-01T09:02:12.189Z,29
2018-02-01T09:03:14.617Z,28
2018-02-01T09:04:17.041Z,36
2018-02-01T09:05:19.471Z,26
2018-02-01T09:06:21.892Z,25
2018-02-01T09:07:24.324Z,28
2018-02-01T09:08:26.743Z,26
2018-02-01T09:09:29.167Z,23
2018-02-01T09:10:31.589Z,27
2018-02-01T09:11:34.022Z,27
2018-02-01T09:12:36.723Z,27
2018-02-01T09:13:39.144Z,26
2018-02-01T09:14:41.565Z,23
2018-02-01T09:15:43.994Z,29
2018-02-01T09:16:46.417Z,29
2018-02-01T09:17:49.129Z,29
2018-02-01T09:18:51.547Z,32
2018-02-01T09:19:53.972Z,30
2018-02-01T09:20:56.388Z,32
2018-02-01T09:21:58.812Z,26
2018-02-01T09:23:01.248Z,27
2018-02-01T09:24:03.667Z,24
2018-02-01T09:25:06.086Z,26
2018-02-01T09:26:08.798Z,25
2018-02-01T09:27:11.500Z,29
2018-02-01T09:28:14.218Z,32
2018-02-01T09:29:17.211Z,29
2018-02-01T09:30:19.628Z,32
2018-02-01T09:31:22.052Z,31
2018-02-01T09:32:24.487Z,27
2018-02-01T09:33:26.902Z,34
2018-02-01T09:34:29.333Z,36
2018-02-01T09:35:31.756Z,37
2018-02-01T09:36:34.182Z,39
2018-02-01T09:37:36.615Z,35
2018-02-01T09:38:39.040Z,35
2018-02-01T09:39:41.453Z,34
2018-02-01T09:40:44.176Z,31
2018-02-01T09:41:46.607Z,35
2018-02-01T09:42:49.026Z,38
2018-02-01T09:43:51.457Z,38
2018-02-01T09:44:53.872Z,41
2018-02-01T09:45:56.582Z,44
2018-02-01T09:46:59.021Z,54
2018-02-01T09:48:02.015Z,60
2018-02-01T09:49:04.423Z,57
2018-02-01T09:50:06.853Z,59
2018-02-01T09:51:09.558Z,70
2018-02-01T09:52:11.988Z,78
2018-02-01T09:53:14.408Z,75
2018-02-01T09:54:16.839Z,68
2018-02-01T09:55:19.258Z,70
2018-02-01T09:56:21.689Z,71
2018-02-01T09:57:24.113Z,67
2018-02-01T09:58:26.529Z,58
2018-02-01T09:59:28.953Z,68
2018-02-01T10:00:31.381Z,71
2018-02-01T10:01:33.804Z,57
2018-02-01T10:02:36.230Z,36
2018-02-01T10:03:38.642Z,40
2018-02-01T10:04:41.083Z,42
2018-02-01T10:05:43.789Z,49
2018-02-01T10:06:46.215Z,62
2018-02-01T10:07:48.639Z,66
2018-02-01T10:08:51.068Z,47
2018-02-01T10:09:53.481Z,57
2018-02-01T10:10:55.923Z,47
2018-02-01T10:11:58.341Z,48
2018-02-01T10:13:00.755Z,39
2018-02-01T10:14:03.187Z,83
2018-02-01T10:15:05.606Z,66
2018-02-01T10:16:08.030Z,67
2018-02-01T10:17:10.458Z,75
2018-02-01T10:18:13.169Z,55
2018-02-01T10:19:15.593Z,44
2018-02-01T10:20:18.015Z,50
2018-02-01T10:21:20.448Z,47
2018-02-01T10:22:22.879Z,39
2018-02-01T10:23:25.310Z,39
2018-02-01T10:24:27.730Z,46
2018-02-01T10:25:30.158Z,46
2018-02-01T10:26:32.579Z,67
2018-02-01T10:27:35.006Z,69
2018-02-01T10:28:37.426Z,67
2018-02-01T10:29:39.861Z,52
2018-02-01T10:30:42.281Z,56
2018-02-01T10:31:45.005Z,73
2018-02-01T10:32:47.423Z,57
2018-02-01T10:33:49.851Z,39
2018-02-01T10:34:52.269Z,45
2018-02-01T10:35:54.699Z,43
2018-02-01T10:36:57.123Z,53
2018-02-01T10:37:59.556Z,61
2018-02-01T10:39:01.987Z,50
2018-02-01T10:40:04.409Z,37
2018-02-01T10:41:06.832Z,36
2018-02-01T10:42:09.260Z,38
2018-02-01T10:43:11.698Z,46
2018-02-01T10:44:14.109Z,42
2018-02-01T10:45:16.811Z,41
2018-02-01T10:46:19.250Z,37
2018-02-01T10:47:21.959Z,41
2018-02-01T10:48:24.391Z,48
2018-02-01T10:49:26.818Z,43
2018-02-01T10:50:29.244Z,41
2018-02-01T10:51:31.665Z,60
2018-02-01T10:52:34.099Z,56
2018-02-01T10:53:36.527Z,44
2018-02-01T10:54:38.949Z,52
2018-02-01T10:55:41.378Z,62
2018-02-01T10:56:43.800Z,60
2018-02-01T10:57:46.222Z,50
2018-02-01T10:58:48.652Z,51
2018-02-01T10:59:51.357Z,57
2018-02-01T11:00:53.789Z,52
2018-02-01T11:01:56.222Z,57
2018-02-01T11:02:58.645Z,54
2018-02-01T11:04:01.365Z,47
2018-02-01T11:05:03.802Z,37
2018-02-01T11:06:06.800Z,48
2018-02-01T11:07:09.222Z,44
2018-02-01T11:08:11.655Z,58
2018-02-01T11:09:14.085Z,48
2018-02-01T11:10:17.094Z,47
2018-02-01T11:11:19.526Z,56
2018-02-01T11:12:21.932Z,57
2018-02-01T11:13:24.363Z,67
2018-02-01T11:14:26.798Z,59
2018-02-01T11:15:29.231Z,52
2018-02-01T11:16:31.649Z,31
2018-02-01T11:17:34.092Z,36
2018-02-01T11:18:36.516Z,47
2018-02-01T11:19:38.932Z,48
2018-02-01T11:20:41.362Z,56
2018-02-01T11:21:43.786Z,51
2018-02-01T11:22:46.218Z,62
2018-02-01T11:23:48.934Z,50
2018-02-01T11:24:51.351Z,40
2018-02-01T11:25:53.778Z,39
2018-02-01T11:26:56.219Z,36
2018-02-01T11:27:58.638Z,35
2018-02-01T11:29:01.074Z,50
2018-02-01T11:30:03.500Z,40
2018-02-01T11:31:05.927Z,44
2018-02-01T11:32:08.361Z,42
2018-02-01T11:33:10.787Z,41
2018-02-01T11:34:13.215Z,34
2018-02-01T11:35:15.646Z,34
2018-02-01T11:36:18.069Z,38
2018-02-01T11:37:20.505Z,40
2018-02-01T11:38:22.922Z,48
2018-02-01T11:39:25.348Z,50
2018-02-01T11:40:27.778Z,60
2018-02-01T11:41:30.207Z,47
2018-02-01T11:42:32.641Z,44
2018-02-01T11:43:35.064Z,39
2018-02-01T11:44:37.487Z,36
2018-02-01T11:45:40.215Z,40
2018-02-01T11:46:42.632Z,64
2018-02-01T11:47:45.342Z,36
2018-02-01T11:48:47.768Z,32
2018-02-01T11:49:50.204Z,29
2018-02-01T11:50:52.618Z,27
2018-02-01T11:51:55.051Z,21
2018-02-01T11:52:57.488Z,26
2018-02-01T11:53:59.910Z,26
2018-02-01T11:55:02.343Z,22
2018-02-01T11:56:04.765Z,20
2018-02-01T11:57:07.196Z,20
2018-02-01T11:58:09.632Z,22
2018-02-01T11:59:12.059Z,19
2018-02-01T12:00:14.478Z,21
2018-02-01T12:01:16.917Z,21
2018-02-01T12:02:19.328Z,26
2018-02-01T12:03:21.762Z,26
2018-02-01T12:04:24.194Z,20
2018-02-01T12:05:26.902Z,20
2018-02-01T12:06:29.329Z,20
2018-02-01T12:07:31.753Z,22
2018-02-01T12:08:34.178Z,22
2018-02-01T12:09:36.620Z,22
2018-02-01T12:10:39.038Z,23
2018-02-01T12:11:41.472Z,30
2018-02-01T12:12:43.901Z,27
2018-02-01T12:13:46.327Z,35
2018-02-01T12:14:48.763Z,37
2018-02-01T12:15:51.462Z,38
2018-02-01T12:16:53.889Z,35
2018-02-01T12:17:56.323Z,28
2018-02-01T12:18:58.745Z,29
2018-02-01T12:20:01.174Z,33
2018-02-01T12:21:03.597Z,35
2018-02-01T12:22:06.026Z,34
2018-02-01T12:23:08.452Z,32
2018-02-01T12:24:10.885Z,34
2018-02-01T12:25:13.306Z,39
2018-02-01T12:26:15.730Z,31
2018-02-01T12:27:18.158Z,31
2018-02-01T12:28:20.576Z,33
2018-02-01T12:29:23.005Z,45
2018-02-01T12:30:25.718Z,35
2018-02-01T12:31:28.150Z,32
2018-02-01T12:32:30.582Z,29
2018-02-01T12:33:32.996Z,28
2018-02-01T12:34:35.420Z,27
2018-02-01T12:35:37.859Z,29
2018-02-01T12:36:40.282Z,25
2018-02-01T12:37:42.982Z,26
2018-02-01T12:38:45.416Z,30
2018-02-01T12:39:47.837Z,33
2018-02-01T12:40:50.263Z,34
2018-02-01T12:41:52.691Z,34
2018-02-01T12:42:55.105Z,32
2018-02-01T12:43:57.533Z,27
2018-02-01T12:44:59.973Z,28
2018-02-01T12:46:02.675Z,31
2018-02-01T12:47:05.104Z,28
2018-02-01T12:48:07.522Z,34
2018-02-01T12:49:09.953Z,34
2018-02-01T12:50:12.379Z,31
2018-02-01T12:51:14.808Z,25
2018-02-01T12:52:17.519Z,28
2018-02-01T12:53:19.948Z,32
2018-02-01T12:54:22.659Z,34
2018-02-01T12:55:25.087Z,34
2018-02-01T12:56:27.513Z,30
2018-02-01T12:57:29.934Z,30
2018-02-01T12:58:32.354Z,29
2018-02-01T12:59:34.794Z,29
2018-02-01T13:00:37.209Z,31
2018-02-01T13:01:39.651Z,24
2018-02-01T13:02:42.068Z,23
2018-02-01T13:03:44.495Z,22
2018-02-01T13:04:46.915Z,24
2018-02-01T13:05:49.346Z,27
2018-02-01T13:06:52.063Z,26
2018-02-01T13:07:54.869Z,27
2018-02-01T13:08:57.284Z,30
2018-02-01T13:09:59.719Z,22
2018-02-01T13:11:02.152Z,19
2018-02-01T13:12:04.572Z,20
2018-02-01T13:13:07.007Z,23
2018-02-01T13:14:09.428Z,22
2018-02-01T13:15:11.858Z,32
2018-02-01T13:16:14.273Z,35
2018-02-01T13:17:16.706Z,37
2018-02-01T13:18:19.132Z,44
2018-02-01T13:19:21.554Z,33
2018-02-01T13:20:23.976Z,31
2018-02-01T13:21:26.406Z,26
2018-02-01T13:22:28.829Z,24
2018-02-01T13:23:31.556Z,27
2018-02-01T13:24:33.974Z,26
2018-02-01T13:25:36.400Z,22
2018-02-01T13:26:39.120Z,21
2018-02-01T13:27:41.549Z,21
2018-02-01T13:28:43.983Z,20
2018-02-01T13:29:46.407Z,17
2018-02-01T13:30:49.396Z,18
2018-02-01T13:31:51.820Z,17
2018-02-01T13:32:54.261Z,23
2018-02-01T13:33:56.684Z,22
2018-02-01T13:34:59.400Z,23
2018-02-01T13:36:01.834Z,21
2018-02-01T13:37:04.260Z,19
2018-02-01T13:38:06.688Z,22
2018-02-01T13:39:09.121Z,25
2018-02-01T13:40:11.537Z,22
2018-02-01T13:41:14.266Z,22
2018-02-01T13:42:16.707Z,21
2018-02-01T13:43:19.413Z,21
2018-02-01T13:44:21.836Z,22
2018-02-01T13:45:24.556Z,28
2018-02-01T13:46:26.979Z,53
2018-02-01T13:47:29.422Z,60
2018-02-01T13:48:31.833Z,69
2018-02-01T13:49:34.270Z,66
2018-02-01T13:50:36.696Z,64
2018-02-01T13:51:39.408Z,67
2018-02-01T13:52:41.836Z,89
2018-02-01T13:53:44.260Z,58
2018-02-01T13:54:46.972Z,55
2018-02-01T13:55:49.681Z,58
2018-02-01T13:56:52.090Z,58
2018-02-01T13:57:54.524Z,55
2018-02-01T13:58:57.242Z,53
2018-02-01T13:59:59.677Z,50
2018-02-01T14:01:02.400Z,43
2018-02-01T14:02:04.829Z,37
2018-02-01T14:03:07.263Z,32
2018-02-01T14:04:09.688Z,31
2018-02-01T14:05:12.403Z,30
2018-02-01T14:06:14.816Z,28
2018-02-01T14:07:17.253Z,29
2018-02-01T14:08:19.677Z,29
2018-02-01T14:09:22.105Z,29
2018-02-01T14:10:24.529Z,25
2018-02-01T14:11:26.952Z,22
2018-02-01T14:12:29.373Z,19
2018-02-01T14:13:31.812Z,17
2018-02-01T14:14:34.239Z,16
2018-02-01T14:15:36.662Z,17
2018-02-01T14:16:39.093Z,16
2018-02-01T14:17:41.528Z,17
2018-02-01T14:18:43.958Z,17
2018-02-01T14:19:46.666Z,15
2018-02-01T14:20:49.099Z,11
2018-02-01T14:21:51.517Z,12
2018-02-01T14:22:53.961Z,15
2018-02-01T14:23:56.381Z,25
2018-02-01T14:24:58.815Z,35
2018-02-01T14:26:01.526Z,30
2018-02-01T14:27:03.959Z,24
2018-02-01T14:28:06.384Z,22
2018-02-01T14:29:08.829Z,20
2018-02-01T14:30:11.244Z,19
2018-02-01T14:31:13.674Z,21
2018-02-01T14:32:16.159Z,22
2018-02-01T14:33:18.539Z,22
2018-02-01T14:34:20.963Z,20
2018-02-01T14:35:23.390Z,17
2018-02-01T14:36:25.824Z,13
2018-02-01T14:37:28.538Z,11
2018-02-01T14:38:30.961Z,9
2018-02-01T14:39:33.396Z,8
2018-02-01T14:40:35.819Z,9
2018-02-01T14:41:38.542Z,11
2018-02-01T14:42:41.249Z,11
2018-02-01T14:43:43.677Z,13
2018-02-01T14:44:46.114Z,14
2018-02-01T14:45:48.535Z,12
2018-02-01T14:46:50.969Z,11
2018-02-01T14:47:53.390Z,10
2018-02-01T14:48:55.855Z,9
2018-02-01T14:49:58.288Z,7
2018-02-01T14:51:00.659Z,7
2018-02-01T14:52:03.376Z,7
2018-02-01T14:53:05.810Z,7
2018-02-01T14:54:08.521Z,8
2018-02-01T14:55:10.955Z,6
2018-02-01T14:56:13.381Z,5
2018-02-01T14:57:15.816Z,4
2018-02-01T14:58:18.231Z,6
2018-02-01T14:59:20.664Z,6
2018-02-01T15:00:23.086Z,6
2018-02-01T15:01:25.523Z,8
2018-02-01T15:02:27.944Z,6
2018-02-01T15:03:30.371Z,5
2018-02-01T15:04:32.794Z,5
2018-02-01T15:05:35.217Z,5
2018-02-01T15:06:37.935Z,4
2018-02-01T15:07:40.366Z,4